sensor_id;sensor_type;location;lat;lon;timestamp;P1;durP1;ratioP1;P2;durP2;ratioP2
61915;SDS011;47868;51.326;6.550;2023-07-29T00:01:02;4.22;;;2.65;;
61915;SDS011;47868;51.326;6.550;2023-07-29T00:03:28;4.78;;;2.58;;
61915;SDS011;47868;51.326;6.550;2023-07-29T00:05:55;7.07;;;2.53;;
61915;SDS011;47868;51.326;6.550;2023-07-29T00:08:21;2.60;;;2.40;;
61915;SDS011;47868;51.326;6.550;2023-07-29T00:10:47;7.80;;;2.63;;
61915;SDS011;47868;51.326;6.550;2023-07-29T00:13:13;4.63;;;2.20;;
61915;SDS011;47868;51.326;6.550;2023-07-29T00:15:39;3.55;;;2.13;;
61915;SDS011;47868;51.326;6.550;2023-07-29T00:18:05;5.70;;;2.75;;
61915;SDS011;47868;51.326;6.550;2023-07-29T00:20:31;5.22;;;2.22;;
61915;SDS011;47868;51.326;6.550;2023-07-29T00:22:57;2.88;;;2.50;;
61915;SDS011;47868;51.326;6.550;2023-07-29T00:25:24;3.55;;;2.60;;
61915;SDS011;47868;51.326;6.550;2023-07-29T00:27:50;6.72;;;3.20;;
61915;SDS011;47868;51.326;6.550;2023-07-29T00:30:16;7.20;;;2.78;;
61915;SDS011;47868;51.326;6.550;2023-07-29T00:32:42;4.00;;;2.80;;
61915;SDS011;47868;51.326;6.550;2023-07-29T00:35:08;6.25;;;2.85;;
61915;SDS011;47868;51.326;6.550;2023-07-29T00:37:34;4.50;;;2.92;;
61915;SDS011;47868;51.326;6.550;2023-07-29T00:40:02;11.60;;;3.03;;
61915;SDS011;47868;51.326;6.550;2023-07-29T00:42:28;5.60;;;3.10;;
61915;SDS011;47868;51.326;6.550;2023-07-29T00:44:54;8.35;;;3.13;;
61915;SDS011;47868;51.326;6.550;2023-07-29T00:47:20;7.63;;;3.00;;
61915;SDS011;47868;51.326;6.550;2023-07-29T00:49:47;6.55;;;2.92;;
61915;SDS011;47868;51.326;6.550;2023-07-29T00:52:13;3.90;;;2.38;;
61915;SDS011;47868;51.326;6.550;2023-07-29T00:54:39;10.63;;;2.72;;
61915;SDS011;47868;51.326;6.550;2023-07-29T00:57:06;3.85;;;2.13;;
61915;SDS011;47868;51.326;6.550;2023-07-29T00:59:34;5.53;;;2.97;;
61915;SDS011;47868;51.326;6.550;2023-07-29T01:02:01;3.35;;;2.30;;
61915;SDS011;47868;51.326;6.550;2023-07-29T01:04:27;3.97;;;2.53;;
61915;SDS011;47868;51.326;6.550;2023-07-29T01:06:58;4.43;;;2.70;;
61915;SDS011;47868;51.326;6.550;2023-07-29T01:11:57;2.88;;;2.42;;
61915;SDS011;47868;51.326;6.550;2023-07-29T01:17:04;4.28;;;2.45;;
61915;SDS011;47868;51.326;6.550;2023-07-29T01:22:04;3.10;;;2.15;;
61915;SDS011;47868;51.326;6.550;2023-07-29T01:24:31;4.90;;;2.88;;
61915;SDS011;47868;51.326;6.550;2023-07-29T01:26:58;5.15;;;3.00;;
61915;SDS011;47868;51.326;6.550;2023-07-29T01:29:26;9.52;;;2.72;;
61915;SDS011;47868;51.326;6.550;2023-07-29T01:31:52;6.90;;;2.92;;
61915;SDS011;47868;51.326;6.550;2023-07-29T01:34:25;2.90;;;2.70;;
61915;SDS011;47868;51.326;6.550;2023-07-29T01:36:52;3.85;;;2.72;;
61915;SDS011;47868;51.326;6.550;2023-07-29T01:39:20;5.55;;;2.85;;
61915;SDS011;47868;51.326;6.550;2023-07-29T01:41:50;6.30;;;2.67;;
61915;SDS011;47868;51.326;6.550;2023-07-29T01:44:16;4.45;;;3.05;;
61915;SDS011;47868;51.326;6.550;2023-07-29T01:46:44;5.32;;;2.90;;
61915;SDS011;47868;51.326;6.550;2023-07-29T01:49:10;3.25;;;2.38;;
61915;SDS011;47868;51.326;6.550;2023-07-29T01:51:36;7.22;;;2.92;;
61915;SDS011;47868;51.326;6.550;2023-07-29T01:54:02;7.35;;;3.10;;
61915;SDS011;47868;51.326;6.550;2023-07-29T01:56:28;5.47;;;2.95;;
61915;SDS011;47868;51.326;6.550;2023-07-29T01:58:54;7.75;;;3.60;;
61915;SDS011;47868;51.326;6.550;2023-07-29T02:01:20;4.65;;;2.60;;
61915;SDS011;47868;51.326;6.550;2023-07-29T02:03:46;3.20;;;2.88;;
61915;SDS011;47868;51.326;6.550;2023-07-29T02:06:12;3.38;;;2.80;;
61915;SDS011;47868;51.326;6.550;2023-07-29T02:08:38;4.50;;;3.10;;
61915;SDS011;47868;51.326;6.550;2023-07-29T02:11:08;7.63;;;2.97;;
61915;SDS011;47868;51.326;6.550;2023-07-29T02:13:34;5.47;;;2.80;;
61915;SDS011;47868;51.326;6.550;2023-07-29T02:16:00;2.80;;;2.50;;
61915;SDS011;47868;51.326;6.550;2023-07-29T02:18:26;3.00;;;2.70;;
61915;SDS011;47868;51.326;6.550;2023-07-29T02:20:52;8.82;;;3.30;;
61915;SDS011;47868;51.326;6.550;2023-07-29T02:23:18;7.55;;;3.00;;
61915;SDS011;47868;51.326;6.550;2023-07-29T02:25:44;11.57;;;3.22;;
61915;SDS011;47868;51.326;6.550;2023-07-29T02:28:10;5.22;;;3.10;;
61915;SDS011;47868;51.326;6.550;2023-07-29T02:30:36;7.15;;;3.40;;
61915;SDS011;47868;51.326;6.550;2023-07-29T02:33:03;3.53;;;3.22;;
61915;SDS011;47868;51.326;6.550;2023-07-29T02:35:28;9.23;;;3.20;;
61915;SDS011;47868;51.326;6.550;2023-07-29T02:37:54;5.97;;;3.55;;
61915;SDS011;47868;51.326;6.550;2023-07-29T02:40:20;9.02;;;3.28;;
61915;SDS011;47868;51.326;6.550;2023-07-29T02:42:47;7.80;;;3.47;;
61915;SDS011;47868;51.326;6.550;2023-07-29T02:45:13;4.13;;;3.15;;
61915;SDS011;47868;51.326;6.550;2023-07-29T02:47:39;3.95;;;3.45;;
61915;SDS011;47868;51.326;6.550;2023-07-29T02:50:05;5.10;;;3.25;;
61915;SDS011;47868;51.326;6.550;2023-07-29T02:52:31;7.60;;;3.10;;
61915;SDS011;47868;51.326;6.550;2023-07-29T02:54:57;10.05;;;3.40;;
61915;SDS011;47868;51.326;6.550;2023-07-29T02:57:23;4.57;;;3.30;;
61915;SDS011;47868;51.326;6.550;2023-07-29T02:59:49;3.63;;;2.90;;
61915;SDS011;47868;51.326;6.550;2023-07-29T03:02:15;3.70;;;2.90;;
61915;SDS011;47868;51.326;6.550;2023-07-29T03:04:41;10.65;;;3.40;;
61915;SDS011;47868;51.326;6.550;2023-07-29T03:07:07;3.50;;;3.20;;
61915;SDS011;47868;51.326;6.550;2023-07-29T03:09:33;5.10;;;3.42;;
61915;SDS011;47868;51.326;6.550;2023-07-29T03:11:59;5.72;;;3.45;;
61915;SDS011;47868;51.326;6.550;2023-07-29T03:14:25;7.13;;;3.20;;
61915;SDS011;47868;51.326;6.550;2023-07-29T03:16:52;3.80;;;3.50;;
61915;SDS011;47868;51.326;6.550;2023-07-29T03:19:18;8.07;;;3.58;;
61915;SDS011;47868;51.326;6.550;2023-07-29T03:21:44;4.20;;;3.80;;
61915;SDS011;47868;51.326;6.550;2023-07-29T03:24:11;6.30;;;4.05;;
61915;SDS011;47868;51.326;6.550;2023-07-29T03:26:37;4.33;;;3.90;;
61915;SDS011;47868;51.326;6.550;2023-07-29T03:29:03;4.93;;;3.88;;
61915;SDS011;47868;51.326;6.550;2023-07-29T03:31:29;5.78;;;4.05;;
61915;SDS011;47868;51.326;6.550;2023-07-29T03:33:54;6.90;;;4.20;;
61915;SDS011;47868;51.326;6.550;2023-07-29T03:36:21;4.32;;;3.92;;
61915;SDS011;47868;51.326;6.550;2023-07-29T03:38:47;7.95;;;4.38;;
61915;SDS011;47868;51.326;6.550;2023-07-29T03:41:13;4.15;;;3.80;;
61915;SDS011;47868;51.326;6.550;2023-07-29T03:43:39;4.53;;;3.95;;
61915;SDS011;47868;51.326;6.550;2023-07-29T03:46:05;4.68;;;3.58;;
61915;SDS011;47868;51.326;6.550;2023-07-29T03:48:31;11.05;;;3.45;;
61915;SDS011;47868;51.326;6.550;2023-07-29T03:50:57;4.63;;;3.83;;
61915;SDS011;47868;51.326;6.550;2023-07-29T03:53:23;3.25;;;2.95;;
61915;SDS011;47868;51.326;6.550;2023-07-29T03:55:49;4.90;;;3.33;;
61915;SDS011;47868;51.326;6.550;2023-07-29T03:58:15;5.90;;;3.15;;
61915;SDS011;47868;51.326;6.550;2023-07-29T04:00:41;3.45;;;3.03;;
61915;SDS011;47868;51.326;6.550;2023-07-29T04:03:07;3.85;;;3.33;;
61915;SDS011;47868;51.326;6.550;2023-07-29T04:05:33;3.95;;;3.20;;
61915;SDS011;47868;51.326;6.550;2023-07-29T04:08:00;3.70;;;3.25;;
61915;SDS011;47868;51.326;6.550;2023-07-29T04:10:26;3.92;;;3.53;;
61915;SDS011;47868;51.326;6.550;2023-07-29T04:12:52;3.75;;;3.45;;
61915;SDS011;47868;51.326;6.550;2023-07-29T04:15:18;5.82;;;3.22;;
61915;SDS011;47868;51.326;6.550;2023-07-29T04:17:44;3.78;;;3.42;;
61915;SDS011;47868;51.326;6.550;2023-07-29T04:20:10;4.32;;;3.92;;
61915;SDS011;47868;51.326;6.550;2023-07-29T04:22:36;4.47;;;4.10;;
61915;SDS011;47868;51.326;6.550;2023-07-29T04:25:02;5.35;;;3.90;;
61915;SDS011;47868;51.326;6.550;2023-07-29T04:27:29;4.68;;;3.88;;
61915;SDS011;47868;51.326;6.550;2023-07-29T04:29:56;7.80;;;6.60;;
61915;SDS011;47868;51.326;6.550;2023-07-29T04:32:22;4.90;;;4.50;;
61915;SDS011;47868;51.326;6.550;2023-07-29T04:34:48;3.75;;;3.28;;
61915;SDS011;47868;51.326;6.550;2023-07-29T04:37:14;4.20;;;3.80;;
61915;SDS011;47868;51.326;6.550;2023-07-29T04:39:40;7.22;;;3.92;;
61915;SDS011;47868;51.326;6.550;2023-07-29T04:42:06;4.80;;;3.60;;
61915;SDS011;47868;51.326;6.550;2023-07-29T04:44:32;3.58;;;3.28;;
61915;SDS011;47868;51.326;6.550;2023-07-29T04:46:58;6.57;;;3.80;;
61915;SDS011;47868;51.326;6.550;2023-07-29T04:49:24;3.85;;;3.42;;
61915;SDS011;47868;51.326;6.550;2023-07-29T04:51:50;4.78;;;2.97;;
61915;SDS011;47868;51.326;6.550;2023-07-29T04:54:16;3.30;;;3.00;;
61915;SDS011;47868;51.326;6.550;2023-07-29T04:56:45;3.58;;;3.03;;
61915;SDS011;47868;51.326;6.550;2023-07-29T04:59:11;4.60;;;3.10;;
61915;SDS011;47868;51.326;6.550;2023-07-29T05:01:38;4.45;;;2.97;;
61915;SDS011;47868;51.326;6.550;2023-07-29T05:04:04;3.60;;;2.83;;
61915;SDS011;47868;51.326;6.550;2023-07-29T05:06:30;8.55;;;3.10;;
61915;SDS011;47868;51.326;6.550;2023-07-29T05:08:57;5.97;;;2.85;;
61915;SDS011;47868;51.326;6.550;2023-07-29T05:11:23;6.13;;;3.05;;
61915;SDS011;47868;51.326;6.550;2023-07-29T05:13:50;5.55;;;3.05;;
61915;SDS011;47868;51.326;6.550;2023-07-29T05:16:16;6.30;;;3.20;;
61915;SDS011;47868;51.326;6.550;2023-07-29T05:18:42;6.63;;;3.58;;
61915;SDS011;47868;51.326;6.550;2023-07-29T05:21:08;5.03;;;3.42;;
61915;SDS011;47868;51.326;6.550;2023-07-29T05:23:36;4.40;;;3.97;;
61915;SDS011;47868;51.326;6.550;2023-07-29T05:26:02;4.18;;;3.88;;
61915;SDS011;47868;51.326;6.550;2023-07-29T05:28:28;6.72;;;4.30;;
61915;SDS011;47868;51.326;6.550;2023-07-29T05:30:54;5.43;;;4.25;;
61915;SDS011;47868;51.326;6.550;2023-07-29T05:33:20;4.75;;;4.32;;
61915;SDS011;47868;51.326;6.550;2023-07-29T05:35:46;5.63;;;4.38;;
61915;SDS011;47868;51.326;6.550;2023-07-29T05:38:12;4.63;;;4.22;;
61915;SDS011;47868;51.326;6.550;2023-07-29T05:40:38;5.18;;;3.88;;
61915;SDS011;47868;51.326;6.550;2023-07-29T05:43:05;5.97;;;4.28;;
61915;SDS011;47868;51.326;6.550;2023-07-29T05:45:31;4.05;;;3.72;;
61915;SDS011;47868;51.326;6.550;2023-07-29T05:47:57;4.28;;;3.88;;
61915;SDS011;47868;51.326;6.550;2023-07-29T05:50:23;4.85;;;4.10;;
61915;SDS011;47868;51.326;6.550;2023-07-29T05:52:49;4.47;;;3.72;;
61915;SDS011;47868;51.326;6.550;2023-07-29T05:55:15;3.80;;;3.40;;
61915;SDS011;47868;51.326;6.550;2023-07-29T05:57:41;6.47;;;3.50;;
61915;SDS011;47868;51.326;6.550;2023-07-29T06:00:07;4.45;;;3.15;;
61915;SDS011;47868;51.326;6.550;2023-07-29T06:02:33;2.90;;;2.70;;
61915;SDS011;47868;51.326;6.550;2023-07-29T06:04:59;3.80;;;2.75;;
61915;SDS011;47868;51.326;6.550;2023-07-29T06:07:28;5.35;;;2.90;;
61915;SDS011;47868;51.326;6.550;2023-07-29T06:09:55;2.90;;;2.60;;
61915;SDS011;47868;51.326;6.550;2023-07-29T06:12:22;3.20;;;2.78;;
61915;SDS011;47868;51.326;6.550;2023-07-29T06:14:48;3.55;;;2.92;;
61915;SDS011;47868;51.326;6.550;2023-07-29T06:17:14;2.85;;;2.63;;
61915;SDS011;47868;51.326;6.550;2023-07-29T06:19:40;5.05;;;2.75;;
61915;SDS011;47868;51.326;6.550;2023-07-29T06:22:06;4.15;;;2.70;;
61915;SDS011;47868;51.326;6.550;2023-07-29T06:24:32;3.90;;;2.63;;
61915;SDS011;47868;51.326;6.550;2023-07-29T06:26:59;3.20;;;2.40;;
61915;SDS011;47868;51.326;6.550;2023-07-29T06:29:25;2.22;;;2.10;;
61915;SDS011;47868;51.326;6.550;2023-07-29T06:31:51;3.08;;;2.22;;
61915;SDS011;47868;51.326;6.550;2023-07-29T06:34:17;3.13;;;2.80;;
61915;SDS011;47868;51.326;6.550;2023-07-29T06:36:43;4.47;;;2.20;;
61915;SDS011;47868;51.326;6.550;2023-07-29T06:39:10;8.38;;;2.50;;
61915;SDS011;47868;51.326;6.550;2023-07-29T06:41:36;2.88;;;2.28;;
61915;SDS011;47868;51.326;6.550;2023-07-29T06:44:02;2.28;;;2.08;;
61915;SDS011;47868;51.326;6.550;2023-07-29T06:46:28;5.43;;;2.20;;
61915;SDS011;47868;51.326;6.550;2023-07-29T06:48:54;3.88;;;2.38;;
61915;SDS011;47868;51.326;6.550;2023-07-29T06:51:20;3.78;;;2.38;;
61915;SDS011;47868;51.326;6.550;2023-07-29T06:53:46;2.38;;;2.17;;
61915;SDS011;47868;51.326;6.550;2023-07-29T06:56:12;2.22;;;2.00;;
61915;SDS011;47868;51.326;6.550;2023-07-29T06:58:38;2.25;;;1.95;;
61915;SDS011;47868;51.326;6.550;2023-07-29T07:01:04;2.70;;;1.92;;
61915;SDS011;47868;51.326;6.550;2023-07-29T07:03:30;2.15;;;2.05;;
61915;SDS011;47868;51.326;6.550;2023-07-29T07:05:56;2.85;;;1.90;;
61915;SDS011;47868;51.326;6.550;2023-07-29T07:08:23;2.53;;;1.77;;
61915;SDS011;47868;51.326;6.550;2023-07-29T07:10:49;4.63;;;1.80;;
61915;SDS011;47868;51.326;6.550;2023-07-29T07:13:15;2.28;;;1.80;;
61915;SDS011;47868;51.326;6.550;2023-07-29T07:15:41;2.97;;;1.80;;
61915;SDS011;47868;51.326;6.550;2023-07-29T07:18:07;2.67;;;1.70;;
61915;SDS011;47868;51.326;6.550;2023-07-29T07:20:34;2.60;;;1.75;;
61915;SDS011;47868;51.326;6.550;2023-07-29T07:23:00;2.03;;;1.70;;
61915;SDS011;47868;51.326;6.550;2023-07-29T07:25:26;1.52;;;1.30;;
61915;SDS011;47868;51.326;6.550;2023-07-29T07:27:52;2.92;;;1.60;;
61915;SDS011;47868;51.326;6.550;2023-07-29T07:30:18;1.77;;;1.52;;
61915;SDS011;47868;51.326;6.550;2023-07-29T07:32:45;3.35;;;1.48;;
61915;SDS011;47868;51.326;6.550;2023-07-29T07:35:11;4.22;;;1.95;;
61915;SDS011;47868;51.326;6.550;2023-07-29T07:37:37;2.03;;;1.65;;
61915;SDS011;47868;51.326;6.550;2023-07-29T07:40:03;2.20;;;1.67;;
61915;SDS011;47868;51.326;6.550;2023-07-29T07:42:29;2.80;;;1.67;;
61915;SDS011;47868;51.326;6.550;2023-07-29T07:44:55;1.75;;;1.35;;
61915;SDS011;47868;51.326;6.550;2023-07-29T07:47:21;5.70;;;1.63;;
61915;SDS011;47868;51.326;6.550;2023-07-29T07:49:47;1.60;;;1.50;;
61915;SDS011;47868;51.326;6.550;2023-07-29T07:52:15;1.40;;;1.30;;
61915;SDS011;47868;51.326;6.550;2023-07-29T07:54:41;1.65;;;1.55;;
61915;SDS011;47868;51.326;6.550;2023-07-29T07:57:07;1.58;;;1.38;;
61915;SDS011;47868;51.326;6.550;2023-07-29T07:59:33;1.75;;;1.63;;
61915;SDS011;47868;51.326;6.550;2023-07-29T08:01:59;1.60;;;1.50;;
61915;SDS011;47868;51.326;6.550;2023-07-29T08:04:25;1.83;;;1.38;;
61915;SDS011;47868;51.326;6.550;2023-07-29T08:06:51;1.80;;;1.35;;
61915;SDS011;47868;51.326;6.550;2023-07-29T08:09:17;1.77;;;1.40;;
61915;SDS011;47868;51.326;6.550;2023-07-29T08:11:43;1.50;;;1.40;;
61915;SDS011;47868;51.326;6.550;2023-07-29T08:14:09;2.00;;;1.60;;
61915;SDS011;47868;51.326;6.550;2023-07-29T08:16:35;1.42;;;1.33;;
61915;SDS011;47868;51.326;6.550;2023-07-29T08:19:01;7.47;;;1.30;;
61915;SDS011;47868;51.326;6.550;2023-07-29T08:21:28;1.20;;;1.20;;
61915;SDS011;47868;51.326;6.550;2023-07-29T08:23:54;1.17;;;1.05;;
61915;SDS011;47868;51.326;6.550;2023-07-29T08:26:20;1.33;;;1.23;;
61915;SDS011;47868;51.326;6.550;2023-07-29T08:28:46;1.98;;;1.42;;
61915;SDS011;47868;51.326;6.550;2023-07-29T08:31:13;1.30;;;1.17;;
61915;SDS011;47868;51.326;6.550;2023-07-29T08:33:39;1.88;;;1.30;;
61915;SDS011;47868;51.326;6.550;2023-07-29T08:36:05;3.13;;;1.40;;
61915;SDS011;47868;51.326;6.550;2023-07-29T08:38:31;1.58;;;1.48;;
61915;SDS011;47868;51.326;6.550;2023-07-29T08:43:35;1.98;;;1.52;;
61915;SDS011;47868;51.326;6.550;2023-07-29T08:46:02;5.90;;;1.50;;
61915;SDS011;47868;51.326;6.550;2023-07-29T08:48:41;1.45;;;1.30;;
61915;SDS011;47868;51.326;6.550;2023-07-29T08:51:07;1.10;;;1.10;;
61915;SDS011;47868;51.326;6.550;2023-07-29T08:53:34;1.15;;;1.05;;
61915;SDS011;47868;51.326;6.550;2023-07-29T08:56:01;1.38;;;1.27;;
61915;SDS011;47868;51.326;6.550;2023-07-29T08:58:27;1.92;;;1.40;;
61915;SDS011;47868;51.326;6.550;2023-07-29T09:00:53;1.92;;;1.58;;
61915;SDS011;47868;51.326;6.550;2023-07-29T09:03:19;2.00;;;1.67;;
61915;SDS011;47868;51.326;6.550;2023-07-29T09:05:46;3.60;;;1.60;;
61915;SDS011;47868;51.326;6.550;2023-07-29T09:08:12;1.50;;;1.40;;
61915;SDS011;47868;51.326;6.550;2023-07-29T09:10:39;3.22;;;1.70;;
61915;SDS011;47868;51.326;6.550;2023-07-29T09:13:05;3.20;;;1.58;;
61915;SDS011;47868;51.326;6.550;2023-07-29T09:15:32;1.65;;;1.55;;
61915;SDS011;47868;51.326;6.550;2023-07-29T09:17:58;2.08;;;1.50;;
61915;SDS011;47868;51.326;6.550;2023-07-29T09:20:25;1.60;;;1.48;;
61915;SDS011;47868;51.326;6.550;2023-07-29T09:22:51;1.70;;;1.60;;
61915;SDS011;47868;51.326;6.550;2023-07-29T09:25:22;2.70;;;1.50;;
61915;SDS011;47868;51.326;6.550;2023-07-29T09:27:48;1.73;;;1.55;;
61915;SDS011;47868;51.326;6.550;2023-07-29T09:30:17;2.92;;;1.60;;
61915;SDS011;47868;51.326;6.550;2023-07-29T09:32:43;1.60;;;1.50;;
61915;SDS011;47868;51.326;6.550;2023-07-29T09:35:10;1.67;;;1.52;;
61915;SDS011;47868;51.326;6.550;2023-07-29T09:37:36;8.27;;;1.75;;
61915;SDS011;47868;51.326;6.550;2023-07-29T09:40:03;2.83;;;1.70;;
61915;SDS011;47868;51.326;6.550;2023-07-29T09:42:29;1.95;;;1.75;;
61915;SDS011;47868;51.326;6.550;2023-07-29T09:44:55;2.20;;;1.90;;
61915;SDS011;47868;51.326;6.550;2023-07-29T09:47:22;1.80;;;1.70;;
61915;SDS011;47868;51.326;6.550;2023-07-29T09:49:48;2.38;;;1.80;;
61915;SDS011;47868;51.326;6.550;2023-07-29T09:52:21;2.83;;;2.10;;
61915;SDS011;47868;51.326;6.550;2023-07-29T09:54:48;5.40;;;1.60;;
61915;SDS011;47868;51.326;6.550;2023-07-29T09:57:14;2.03;;;1.88;;
61915;SDS011;47868;51.326;6.550;2023-07-29T09:59:40;1.85;;;1.75;;
61915;SDS011;47868;51.326;6.550;2023-07-29T10:02:13;1.65;;;1.40;;
61915;SDS011;47868;51.326;6.550;2023-07-29T10:04:41;1.80;;;1.65;;
61915;SDS011;47868;51.326;6.550;2023-07-29T10:07:07;2.33;;;1.48;;
61915;SDS011;47868;51.326;6.550;2023-07-29T10:09:34;1.45;;;1.35;;
61915;SDS011;47868;51.326;6.550;2023-07-29T10:12:00;3.33;;;1.60;;
61915;SDS011;47868;51.326;6.550;2023-07-29T10:14:27;2.05;;;1.58;;
61915;SDS011;47868;51.326;6.550;2023-07-29T10:16:53;1.88;;;1.45;;
61915;SDS011;47868;51.326;6.550;2023-07-29T10:19:20;2.13;;;1.92;;
61915;SDS011;47868;51.326;6.550;2023-07-29T10:21:48;3.65;;;1.63;;
61915;SDS011;47868;51.326;6.550;2023-07-29T10:24:18;1.40;;;1.25;;
61915;SDS011;47868;51.326;6.550;2023-07-29T10:26:53;2.85;;;1.67;;
61915;SDS011;47868;51.326;6.550;2023-07-29T10:29:20;4.72;;;1.50;;
61915;SDS011;47868;51.326;6.550;2023-07-29T10:31:46;3.67;;;1.48;;
61915;SDS011;47868;51.326;6.550;2023-07-29T10:34:13;1.58;;;1.48;;
61915;SDS011;47868;51.326;6.550;2023-07-29T10:36:40;1.70;;;1.60;;
61915;SDS011;47868;51.326;6.550;2023-07-29T10:39:06;3.03;;;1.67;;
61915;SDS011;47868;51.326;6.550;2023-07-29T10:47:10;1.42;;;1.33;;
61915;SDS011;47868;51.326;6.550;2023-07-29T10:49:36;2.50;;;1.60;;
61915;SDS011;47868;51.326;6.550;2023-07-29T10:52:02;2.00;;;1.83;;
61915;SDS011;47868;51.326;6.550;2023-07-29T10:54:28;1.70;;;1.60;;
61915;SDS011;47868;51.326;6.550;2023-07-29T10:56:54;4.75;;;1.67;;
61915;SDS011;47868;51.326;6.550;2023-07-29T11:01:50;1.55;;;1.45;;
61915;SDS011;47868;51.326;6.550;2023-07-29T11:12:32;2.83;;;1.50;;
61915;SDS011;47868;51.326;6.550;2023-07-29T11:14:52;1.70;;;1.60;;
61915;SDS011;47868;51.326;6.550;2023-07-29T11:17:18;1.60;;;1.50;;
61915;SDS011;47868;51.326;6.550;2023-07-29T11:19:44;3.95;;;1.52;;
61915;SDS011;47868;51.326;6.550;2023-07-29T11:22:10;1.40;;;1.30;;
61915;SDS011;47868;51.326;6.550;2023-07-29T11:24:37;1.75;;;1.52;;
61915;SDS011;47868;51.326;6.550;2023-07-29T11:27:03;1.67;;;1.58;;
61915;SDS011;47868;51.326;6.550;2023-07-29T11:29:29;1.60;;;1.50;;
61915;SDS011;47868;51.326;6.550;2023-07-29T11:31:55;2.08;;;1.70;;
61915;SDS011;47868;51.326;6.550;2023-07-29T11:34:30;1.73;;;1.08;;
61915;SDS011;47868;51.326;6.550;2023-07-29T11:36:56;1.55;;;1.40;;
61915;SDS011;47868;51.326;6.550;2023-07-29T11:39:22;1.55;;;1.30;;
61915;SDS011;47868;51.326;6.550;2023-07-29T11:41:48;2.08;;;1.42;;
61915;SDS011;47868;51.326;6.550;2023-07-29T11:44:17;1.98;;;1.50;;
61915;SDS011;47868;51.326;6.550;2023-07-29T11:46:44;1.63;;;1.42;;
61915;SDS011;47868;51.326;6.550;2023-07-29T11:49:10;4.30;;;1.52;;
61915;SDS011;47868;51.326;6.550;2023-07-29T11:51:36;2.80;;;1.65;;
61915;SDS011;47868;51.326;6.550;2023-07-29T11:54:02;1.98;;;1.70;;
61915;SDS011;47868;51.326;6.550;2023-07-29T11:56:29;2.53;;;1.50;;
61915;SDS011;47868;51.326;6.550;2023-07-29T11:58:57;1.70;;;1.50;;
61915;SDS011;47868;51.326;6.550;2023-07-29T12:01:23;1.70;;;1.60;;
61915;SDS011;47868;51.326;6.550;2023-07-29T12:03:50;2.10;;;1.48;;
61915;SDS011;47868;51.326;6.550;2023-07-29T12:06:16;1.60;;;1.45;;
61915;SDS011;47868;51.326;6.550;2023-07-29T12:08:42;1.42;;;1.33;;
61915;SDS011;47868;51.326;6.550;2023-07-29T12:11:09;3.63;;;1.52;;
61915;SDS011;47868;51.326;6.550;2023-07-29T12:13:38;2.22;;;1.40;;
61915;SDS011;47868;51.326;6.550;2023-07-29T12:16:04;2.08;;;1.50;;
61915;SDS011;47868;51.326;6.550;2023-07-29T12:18:32;1.60;;;1.50;;
61915;SDS011;47868;51.326;6.550;2023-07-29T12:20:59;2.25;;;1.33;;
61915;SDS011;47868;51.326;6.550;2023-07-29T12:23:25;3.00;;;1.33;;
61915;SDS011;47868;51.326;6.550;2023-07-29T12:25:56;3.00;;;1.50;;
61915;SDS011;47868;51.326;6.550;2023-07-29T12:28:22;2.63;;;1.58;;
61915;SDS011;47868;51.326;6.550;2023-07-29T12:30:53;1.73;;;1.38;;
61915;SDS011;47868;51.326;6.550;2023-07-29T12:33:32;1.85;;;1.70;;
61915;SDS011;47868;51.326;6.550;2023-07-29T12:35:58;2.22;;;1.48;;
61915;SDS011;47868;51.326;6.550;2023-07-29T12:38:27;1.67;;;1.58;;
61915;SDS011;47868;51.326;6.550;2023-07-29T12:40:53;3.15;;;1.52;;
61915;SDS011;47868;51.326;6.550;2023-07-29T12:43:19;2.55;;;1.50;;
61915;SDS011;47868;51.326;6.550;2023-07-29T12:45:45;1.55;;;1.30;;
61915;SDS011;47868;51.326;6.550;2023-07-29T12:48:11;1.67;;;1.23;;
61915;SDS011;47868;51.326;6.550;2023-07-29T12:50:38;1.63;;;1.08;;
61915;SDS011;47868;51.326;6.550;2023-07-29T12:53:04;2.42;;;1.48;;
61915;SDS011;47868;51.326;6.550;2023-07-29T12:55:31;1.65;;;1.50;;
61915;SDS011;47868;51.326;6.550;2023-07-29T12:57:57;1.60;;;1.50;;
61915;SDS011;47868;51.326;6.550;2023-07-29T13:00:24;1.90;;;1.80;;
61915;SDS011;47868;51.326;6.550;2023-07-29T13:02:50;2.35;;;1.52;;
61915;SDS011;47868;51.326;6.550;2023-07-29T13:05:16;1.70;;;1.60;;
61915;SDS011;47868;51.326;6.550;2023-07-29T13:07:42;4.00;;;1.40;;
61915;SDS011;47868;51.326;6.550;2023-07-29T13:10:12;3.45;;;1.63;;
61915;SDS011;47868;51.326;6.550;2023-07-29T13:12:38;1.70;;;1.60;;
61915;SDS011;47868;51.326;6.550;2023-07-29T13:15:05;1.70;;;1.60;;
61915;SDS011;47868;51.326;6.550;2023-07-29T13:17:31;2.63;;;1.70;;
61915;SDS011;47868;51.326;6.550;2023-07-29T13:19:58;1.85;;;1.75;;
61915;SDS011;47868;51.326;6.550;2023-07-29T13:22:24;3.20;;;1.77;;
61915;SDS011;47868;51.326;6.550;2023-07-29T13:24:50;2.03;;;1.83;;
61915;SDS011;47868;51.326;6.550;2023-07-29T13:27:16;2.13;;;1.90;;
61915;SDS011;47868;51.326;6.550;2023-07-29T13:29:42;2.58;;;1.85;;
61915;SDS011;47868;51.326;6.550;2023-07-29T13:32:08;4.53;;;2.00;;
61915;SDS011;47868;51.326;6.550;2023-07-29T13:34:34;2.60;;;2.00;;
61915;SDS011;47868;51.326;6.550;2023-07-29T13:37:01;3.67;;;1.90;;
61915;SDS011;47868;51.326;6.550;2023-07-29T13:39:27;4.55;;;1.80;;
61915;SDS011;47868;51.326;6.550;2023-07-29T13:41:53;2.70;;;1.70;;
61915;SDS011;47868;51.326;6.550;2023-07-29T13:44:19;2.63;;;2.20;;
61915;SDS011;47868;51.326;6.550;2023-07-29T13:46:45;2.20;;;2.00;;
61915;SDS011;47868;51.326;6.550;2023-07-29T13:49:11;2.53;;;2.10;;
61915;SDS011;47868;51.326;6.550;2023-07-29T13:51:37;2.55;;;2.00;;
61915;SDS011;47868;51.326;6.550;2023-07-29T13:54:03;2.38;;;2.10;;
61915;SDS011;47868;51.326;6.550;2023-07-29T13:56:29;3.25;;;2.17;;
61915;SDS011;47868;51.326;6.550;2023-07-29T13:58:55;4.97;;;1.85;;
61915;SDS011;47868;51.326;6.550;2023-07-29T14:01:21;7.03;;;2.08;;
61915;SDS011;47868;51.326;6.550;2023-07-29T14:03:49;3.20;;;1.88;;
61915;SDS011;47868;51.326;6.550;2023-07-29T14:06:15;15.55;;;2.28;;
61915;SDS011;47868;51.326;6.550;2023-07-29T14:08:41;2.92;;;1.85;;
61915;SDS011;47868;51.326;6.550;2023-07-29T14:11:07;1.90;;;1.70;;
61915;SDS011;47868;51.326;6.550;2023-07-29T14:13:33;1.60;;;1.50;;
61915;SDS011;47868;51.326;6.550;2023-07-29T14:16:01;2.20;;;1.65;;
61915;SDS011;47868;51.326;6.550;2023-07-29T14:18:27;1.80;;;1.70;;
61915;SDS011;47868;51.326;6.550;2023-07-29T14:20:53;2.00;;;1.80;;
61915;SDS011;47868;51.326;6.550;2023-07-29T14:23:19;1.80;;;1.70;;
61915;SDS011;47868;51.326;6.550;2023-07-29T14:25:45;3.58;;;1.73;;
61915;SDS011;47868;51.326;6.550;2023-07-29T14:28:12;1.77;;;1.67;;
61915;SDS011;47868;51.326;6.550;2023-07-29T14:30:38;2.20;;;1.85;;
61915;SDS011;47868;51.326;6.550;2023-07-29T14:33:06;4.38;;;1.90;;
61915;SDS011;47868;51.326;6.550;2023-07-29T14:35:32;1.80;;;1.60;;
61915;SDS011;47868;51.326;6.550;2023-07-29T14:37:58;2.03;;;1.90;;
61915;SDS011;47868;51.326;6.550;2023-07-29T14:40:24;2.20;;;2.00;;
61915;SDS011;47868;51.326;6.550;2023-07-29T14:42:50;2.72;;;1.60;;
61915;SDS011;47868;51.326;6.550;2023-07-29T14:45:16;2.28;;;2.05;;
61915;SDS011;47868;51.326;6.550;2023-07-29T14:47:42;1.70;;;1.55;;
61915;SDS011;47868;51.326;6.550;2023-07-29T14:50:08;1.98;;;1.67;;
61915;SDS011;47868;51.326;6.550;2023-07-29T14:52:34;2.10;;;1.90;;
61915;SDS011;47868;51.326;6.550;2023-07-29T14:55:00;2.63;;;1.85;;
61915;SDS011;47868;51.326;6.550;2023-07-29T14:57:26;2.08;;;1.70;;
61915;SDS011;47868;51.326;6.550;2023-07-29T14:59:52;1.83;;;1.67;;
61915;SDS011;47868;51.326;6.550;2023-07-29T15:02:18;3.65;;;1.80;;
61915;SDS011;47868;51.326;6.550;2023-07-29T15:04:44;2.00;;;1.60;;
61915;SDS011;47868;51.326;6.550;2023-07-29T15:07:10;1.70;;;1.60;;
61915;SDS011;47868;51.326;6.550;2023-07-29T15:09:36;1.88;;;1.77;;